createdAt,value
2023-03-06T00:00:50.808Z,40.78
2023-03-06T00:03:17.590Z,39.92
2023-03-06T00:05:44.336Z,41.11
2023-03-06T00:08:16.634Z,41.16
2023-03-06T00:10:43.762Z,43.02
2023-03-06T00:13:12.896Z,42.39
2023-03-06T00:15:39.652Z,42.69
2023-03-06T00:18:06.852Z,43.39
2023-03-06T00:20:33.917Z,43.74
2023-03-06T00:23:00.974Z,44.96
2023-03-06T00:25:28.770Z,44.72
2023-03-06T00:27:58.240Z,44.77
2023-03-06T00:30:25.487Z,46.38
2023-03-06T00:32:52.598Z,45.57
2023-03-06T00:35:20.592Z,45.40
2023-03-06T00:37:48.048Z,47.66
2023-03-06T00:40:16.719Z,48.52
2023-03-06T00:42:46.883Z,48.77
2023-03-06T00:45:13.776Z,48.51
2023-03-06T00:47:40.838Z,49.47
2023-03-06T00:50:10.688Z,50.41
2023-03-06T00:52:37.504Z,52.38
2023-03-06T00:55:06.541Z,52.58
2023-03-06T00:57:33.288Z,52.12
2023-03-06T01:00:00.524Z,51.86
2023-03-06T01:02:27.343Z,54.65
2023-03-06T01:04:54.139Z,52.55
2023-03-06T01:07:23.618Z,52.86
2023-03-06T01:09:50.642Z,53.91
2023-03-06T01:12:19.287Z,54.13
2023-03-06T01:14:48.678Z,54.20
2023-03-06T01:17:16.214Z,54.72
2023-03-06T01:19:45.785Z,54.50
2023-03-06T01:22:12.723Z,54.76
2023-03-06T01:24:42.565Z,55.39
2023-03-06T01:27:09.825Z,55.17
2023-03-06T01:29:39.034Z,55.84
2023-03-06T01:32:07.562Z,56.12
2023-03-06T01:34:34.509Z,54.02
2023-03-06T01:37:01.771Z,55.10
2023-03-06T01:39:28.517Z,55.47
2023-03-06T01:41:55.217Z,55.93
2023-03-06T01:44:22.239Z,55.97
2023-03-06T01:46:50.473Z,54.94
2023-03-06T01:49:41.348Z,54.23
2023-03-06T01:52:13.226Z,53.34
2023-03-06T01:54:54.583Z,53.85
2023-03-06T01:57:26.598Z,54.75
2023-03-06T01:59:56.458Z,53.58
2023-03-06T02:02:23.657Z,55.79
2023-03-06T02:04:52.242Z,56.09
2023-03-06T02:07:20.322Z,55.08
2023-03-06T02:09:47.070Z,54.65
2023-03-06T02:12:16.654Z,54.91
2023-03-06T02:14:43.677Z,53.47
2023-03-06T02:17:11.191Z,55.50
2023-03-06T02:20:11.836Z,56.29
2023-03-06T02:22:54.661Z,55.65
2023-03-06T02:25:34.564Z,57.10
2023-03-06T02:28:01.542Z,56.79
2023-03-06T02:30:29.092Z,57.90
2023-03-06T02:32:56.189Z,57.54
2023-03-06T02:35:25.579Z,56.56
2023-03-06T02:37:53.091Z,56.90
2023-03-06T02:40:21.335Z,56.17
2023-03-06T02:42:50.177Z,55.39
2023-03-06T02:45:44.423Z,56.92
2023-03-06T02:48:12.377Z,56.53
2023-03-06T02:50:40.177Z,56.23
2023-03-06T02:53:07.369Z,54.71
2023-03-06T02:55:34.490Z,56.10
2023-03-06T02:58:01.707Z,56.27
2023-03-06T03:00:34.611Z,55.77
2023-03-06T03:03:01.544Z,55.94
2023-03-06T03:05:28.290Z,56.68
2023-03-06T03:07:55.024Z,55.55
2023-03-06T03:10:22.130Z,55.23
2023-03-06T03:12:50.769Z,56.31
2023-03-06T03:15:23.846Z,56.01
2023-03-06T03:17:50.581Z,54.89
2023-03-06T03:20:18.951Z,55.53
2023-03-06T03:22:53.346Z,56.16
2023-03-06T03:25:22.611Z,57.89
2023-03-06T03:27:54.257Z,57.84
2023-03-06T03:30:24.035Z,55.55
2023-03-06T03:32:53.558Z,54.95
2023-03-06T03:35:20.372Z,55.62
2023-03-06T03:37:47.165Z,55.80
2023-03-06T03:40:14.388Z,57.77
2023-03-06T03:42:41.098Z,58.25
2023-03-06T03:45:08.182Z,57.66
2023-03-06T03:47:36.862Z,57.66
2023-03-06T03:50:04.622Z,59.58
2023-03-06T03:52:31.394Z,58.34
2023-03-06T03:54:59.152Z,56.27
2023-03-06T03:57:25.925Z,58.87
2023-03-06T03:59:53.542Z,58.27
2023-03-06T04:02:21.021Z,57.61
2023-03-06T04:04:49.300Z,58.54
2023-03-06T04:07:18.840Z,57.23
2023-03-06T04:09:46.340Z,57.75
2023-03-06T04:12:13.467Z,57.94
2023-03-06T04:14:40.208Z,59.68
2023-03-06T04:17:06.909Z,58.06
2023-03-06T04:19:34.966Z,57.66
2023-03-06T04:22:02.589Z,57.19
2023-03-06T04:24:33.104Z,57.60
2023-03-06T04:26:59.823Z,59.29
2023-03-06T04:29:27.878Z,55.99
2023-03-06T04:31:55.169Z,57.64
2023-03-06T04:34:27.349Z,55.57
2023-03-06T04:36:54.566Z,57.11
2023-03-06T04:39:21.675Z,58.29
2023-03-06T04:41:48.423Z,57.99
2023-03-06T04:44:16.313Z,57.88
2023-03-06T04:46:45.874Z,57.11
2023-03-06T04:49:17.821Z,57.40
2023-03-06T04:51:44.847Z,57.44
2023-03-06T04:54:11.575Z,57.93
2023-03-06T04:56:40.020Z,56.90
2023-03-06T04:59:07.586Z,57.94
2023-03-06T05:01:34.361Z,56.37
2023-03-06T05:04:01.145Z,58.14
2023-03-06T05:06:28.221Z,57.44
2023-03-06T05:08:54.941Z,59.10
2023-03-06T05:11:23.612Z,58.62
2023-03-06T05:13:50.497Z,58.25
2023-03-06T05:16:20.110Z,57.33
2023-03-06T05:18:50.201Z,57.37
2023-03-06T05:21:17.472Z,57.10
2023-03-06T05:23:44.570Z,57.25
2023-03-06T05:26:12.867Z,57.10
2023-03-06T05:28:40.009Z,58.60
2023-03-06T05:31:08.794Z,58.57
2023-03-06T05:33:36.003Z,57.15
2023-03-06T05:36:02.757Z,58.77
2023-03-06T05:38:29.829Z,58.15
2023-03-06T05:40:56.606Z,57.21
2023-03-06T05:43:26.323Z,58.37
2023-03-06T05:46:00.657Z,58.73
2023-03-06T05:48:27.773Z,58.21
2023-03-06T05:50:58.292Z,57.73
2023-03-06T05:53:25.034Z,58.17
2023-03-06T05:55:59.034Z,58.95
2023-03-06T05:58:26.429Z,59.80
2023-03-06T06:00:53.183Z,59.13
2023-03-06T06:03:21.245Z,58.22
2023-03-06T06:05:49.463Z,58.53
2023-03-06T06:08:20.017Z,59.24
2023-03-06T06:10:47.384Z,58.96
2023-03-06T06:13:14.842Z,60.66
2023-03-06T06:15:41.977Z,59.71
2023-03-06T06:18:11.517Z,58.03
2023-03-06T06:20:38.417Z,58.39
2023-03-06T06:23:06.460Z,58.02
2023-03-06T06:25:33.933Z,57.76
2023-03-06T06:28:01.053Z,59.20
2023-03-06T06:30:27.771Z,56.82
2023-03-06T06:32:54.478Z,57.37
2023-03-06T06:35:21.194Z,57.70
2023-03-06T06:37:48.294Z,59.21
2023-03-06T06:40:16.452Z,57.54
2023-03-06T06:42:44.320Z,58.47
2023-03-06T06:45:11.377Z,58.28
2023-03-06T06:47:39.798Z,57.34
2023-03-06T06:50:07.794Z,57.03
2023-03-06T06:52:34.476Z,55.46
2023-03-06T06:55:01.248Z,55.58
2023-03-06T06:57:28.562Z,56.72
2023-03-06T06:59:55.289Z,54.98
2023-03-06T07:02:22.065Z,56.65
2023-03-06T07:05:02.924Z,57.68
2023-03-06T07:07:33.045Z,56.84
2023-03-06T07:10:08.733Z,56.08
2023-03-06T07:12:38.412Z,54.66
2023-03-06T07:15:06.212Z,53.39
2023-03-06T07:17:32.994Z,54.91
2023-03-06T07:19:59.798Z,53.60
2023-03-06T07:22:26.873Z,52.51
2023-03-06T07:24:53.586Z,53.77
2023-03-06T07:27:22.220Z,53.43
2023-03-06T07:29:48.992Z,52.83
2023-03-06T07:32:17.262Z,53.52
2023-03-06T07:34:44.285Z,51.73
2023-03-06T07:37:12.012Z,54.06
2023-03-06T07:39:39.091Z,54.16
2023-03-06T07:42:06.800Z,54.27
2023-03-06T07:44:40.050Z,54.22
2023-03-06T07:47:07.004Z,54.95
2023-03-06T07:49:34.661Z,53.18
2023-03-06T07:52:01.471Z,54.36
2023-03-06T07:54:31.473Z,53.36
2023-03-06T07:57:02.869Z,52.97
2023-03-06T07:59:29.584Z,52.82
2023-03-06T08:01:56.330Z,54.98
2023-03-06T08:04:27.439Z,54.23
2023-03-06T08:06:55.656Z,54.80
2023-03-06T08:09:22.919Z,54.11
2023-03-06T08:11:50.993Z,54.96
2023-03-06T08:14:18.348Z,53.48
2023-03-06T08:16:45.457Z,53.39
2023-03-06T08:19:12.188Z,53.34
2023-03-06T08:21:39.298Z,53.13
2023-03-06T08:24:07.490Z,53.25
2023-03-06T08:26:34.421Z,55.09
2023-03-06T08:29:01.777Z,53.29
2023-03-06T08:31:48.557Z,53.17
2023-03-06T08:34:17.135Z,52.40
2023-03-06T08:36:43.926Z,52.88
2023-03-06T08:39:13.964Z,52.45
2023-03-06T08:41:40.847Z,51.81
2023-03-06T08:44:07.687Z,53.64
2023-03-06T08:46:34.386Z,52.77
2023-03-06T08:49:01.750Z,51.55
2023-03-06T08:51:29.758Z,52.24
2023-03-06T08:53:58.681Z,51.85
2023-03-06T08:56:49.256Z,53.74
2023-03-06T08:59:17.001Z,54.00
2023-03-06T09:01:43.981Z,53.74
2023-03-06T09:04:11.787Z,52.97
2023-03-06T09:06:42.473Z,53.25
2023-03-06T09:09:12.123Z,51.90
2023-03-06T09:11:40.269Z,52.34
2023-03-06T09:14:07.145Z,52.45
2023-03-06T09:16:34.228Z,51.89
2023-03-06T09:19:00.986Z,49.97
2023-03-06T09:21:29.010Z,50.50
2023-03-06T09:23:55.869Z,50.42
2023-03-06T09:26:39.500Z,49.18
2023-03-06T09:29:10.447Z,48.22
2023-03-06T09:31:37.188Z,48.70
2023-03-06T09:34:04.138Z,47.36
2023-03-06T09:36:45.643Z,47.55
2023-03-06T09:39:23.309Z,48.16
2023-03-06T09:41:53.813Z,48.10
2023-03-06T09:44:27.810Z,47.20
2023-03-06T09:47:49.669Z,47.24
2023-03-06T09:50:46.209Z,46.94
2023-03-06T09:53:30.653Z,46.02
2023-03-06T09:56:01.166Z,45.81
2023-03-06T09:58:29.270Z,45.80
2023-03-06T10:01:21.852Z,44.66
2023-03-06T10:03:59.780Z,44.28
2023-03-06T10:06:37.173Z,44.75
2023-03-06T10:09:23.206Z,44.74
2023-03-06T10:11:57.120Z,44.42
2023-03-06T10:14:35.107Z,44.75
2023-03-06T10:17:02.043Z,42.01
2023-03-06T10:19:36.776Z,43.39
2023-03-06T10:22:26.050Z,43.03
2023-03-06T10:25:01.919Z,40.45
2023-03-06T10:27:46.284Z,42.86
2023-03-06T10:30:34.881Z,38.48
2023-03-06T10:33:13.247Z,38.42
2023-03-06T10:35:49.379Z,35.91
2023-03-06T10:38:26.825Z,36.48
2023-03-06T10:41:31.470Z,37.83
2023-03-06T10:44:01.666Z,37.16
2023-03-06T10:46:50.185Z,38.16
2023-03-06T10:49:31.370Z,37.16
2023-03-06T10:52:09.998Z,38.05
2023-03-06T10:54:37.991Z,37.18
2023-03-06T10:57:24.804Z,34.56
2023-03-06T10:59:56.827Z,33.85
2023-03-06T11:02:33.493Z,35.17
2023-03-06T11:05:00.795Z,37.36
2023-03-06T11:07:29.115Z,35.97
2023-03-06T11:10:02.609Z,36.47
2023-03-06T11:12:38.938Z,36.27
2023-03-06T11:15:15.132Z,36.46
2023-03-06T11:18:11.331Z,35.72
2023-03-06T11:20:51.943Z,35.39
2023-03-06T11:23:24.914Z,35.87
2023-03-06T11:25:57.587Z,35.74
2023-03-06T11:28:28.556Z,35.00
2023-03-06T11:31:22.599Z,35.07
2023-03-06T11:34:06.071Z,34.27
2023-03-06T11:36:43.207Z,33.61
2023-03-06T11:40:03.729Z,32.27
2023-03-06T11:42:34.146Z,30.69
2023-03-06T11:45:19.087Z,31.11
2023-03-06T11:47:49.218Z,30.91
2023-03-06T11:50:36.715Z,29.48
2023-03-06T11:53:07.024Z,31.57
2023-03-06T11:55:36.639Z,28.40
2023-03-06T11:58:22.902Z,27.12
2023-03-06T12:01:06.572Z,28.08
2023-03-06T12:03:39.577Z,28.58
2023-03-06T12:06:24.321Z,29.60
2023-03-06T12:09:14.420Z,28.89
2023-03-06T12:12:28.888Z,29.87
2023-03-06T12:15:12.938Z,28.59
2023-03-06T12:18:05.233Z,24.44
2023-03-06T12:20:37.815Z,26.86
2023-03-06T12:23:15.357Z,28.68
2023-03-06T12:25:56.566Z,28.52
2023-03-06T12:28:35.129Z,29.57
2023-03-06T12:31:36.064Z,28.71
2023-03-06T12:34:31.822Z,29.08
2023-03-06T12:37:47.157Z,29.12
2023-03-06T12:40:32.268Z,27.51
2023-03-06T12:43:20.297Z,27.84
2023-03-06T12:45:47.119Z,28.11
2023-03-06T12:48:21.280Z,27.36
2023-03-06T12:50:49.569Z,26.37
2023-03-06T12:53:26.921Z,29.17
2023-03-06T12:55:58.135Z,26.21
2023-03-06T12:58:30.704Z,24.74
2023-03-06T13:01:29.438Z,25.94
2023-03-06T13:04:24.374Z,24.00
2023-03-06T13:07:17.505Z,23.50
2023-03-06T13:10:18.500Z,24.73
2023-03-06T13:13:00.641Z,25.25
2023-03-06T13:15:45.957Z,23.41
2023-03-06T13:18:42.920Z,21.80
2023-03-06T13:21:51.134Z,23.13
2023-03-06T13:24:24.301Z,22.28
2023-03-06T13:27:10.564Z,24.41
2023-03-06T13:29:42.537Z,22.66
2023-03-06T13:32:16.396Z,22.49
2023-03-06T13:34:44.372Z,20.93
2023-03-06T13:37:16.902Z,21.10
2023-03-06T13:39:58.619Z,20.97
2023-03-06T13:42:32.222Z,20.83
2023-03-06T13:45:27.798Z,20.76
2023-03-06T13:50:47.997Z,21.19
2023-03-06T13:53:50.093Z,20.85
2023-03-06T13:56:34.848Z,21.54
2023-03-06T13:59:26.391Z,21.33
2023-03-06T14:02:44.857Z,20.59
2023-03-06T14:05:13.549Z,18.44
2023-03-06T14:08:02.692Z,17.46
2023-03-06T14:10:29.403Z,16.56
2023-03-06T14:13:30.031Z,16.79
2023-03-06T14:15:59.390Z,16.99
2023-03-06T14:18:42.614Z,15.76
2023-03-06T14:21:16.128Z,16.60
2023-03-06T14:23:43.452Z,16.49
2023-03-06T14:26:23.355Z,15.63
2023-03-06T14:28:53.510Z,16.74
2023-03-06T14:31:32.199Z,15.73
2023-03-06T14:34:00.673Z,15.43
2023-03-06T14:36:52.830Z,14.76
2023-03-06T14:39:38.605Z,14.84
2023-03-06T14:42:19.015Z,14.66
2023-03-06T14:44:48.947Z,14.64
2023-03-06T14:47:49.599Z,14.99
2023-03-06T14:50:28.126Z,15.39
2023-03-06T14:53:14.865Z,15.10
2023-03-06T14:55:52.493Z,17.85
2023-03-06T14:58:21.564Z,17.46
2023-03-06T15:00:50.199Z,17.47
2023-03-06T15:03:25.494Z,17.78
2023-03-06T15:05:52.286Z,16.74
2023-03-06T15:08:22.516Z,16.50
2023-03-06T15:11:00.764Z,16.77
2023-03-06T15:13:28.875Z,16.90
2023-03-06T15:16:00.960Z,16.89
2023-03-06T15:18:37.056Z,16.02
2023-03-06T15:21:25.850Z,15.07
2023-03-06T15:23:53.988Z,15.48
2023-03-06T15:26:31.677Z,15.56
2023-03-06T15:29:10.892Z,16.19
2023-03-06T15:31:39.592Z,16.33
2023-03-06T15:34:06.582Z,15.66
2023-03-06T15:36:53.042Z,14.68
2023-03-06T15:39:33.612Z,17.19
2023-03-06T15:42:20.360Z,17.71
2023-03-06T15:44:59.850Z,18.39
2023-03-06T15:47:26.587Z,17.36
2023-03-06T15:49:53.374Z,17.26
2023-03-06T15:52:23.332Z,15.56
2023-03-06T15:54:50.084Z,15.00
2023-03-06T15:57:27.291Z,14.40
2023-03-06T15:59:55.996Z,14.22
2023-03-06T16:02:23.900Z,13.92
2023-03-06T16:04:51.139Z,13.99
2023-03-06T16:07:19.430Z,13.42
2023-03-06T16:09:46.335Z,13.26
2023-03-06T16:12:24.176Z,14.02
2023-03-06T16:14:52.447Z,13.75
2023-03-06T16:17:24.024Z,13.23
2023-03-06T16:19:50.715Z,13.49
2023-03-06T16:22:17.410Z,12.66
2023-03-06T16:24:44.668Z,12.50
2023-03-06T16:27:16.571Z,11.93
2023-03-06T16:29:43.269Z,12.81
2023-03-06T16:32:10.629Z,12.56
2023-03-06T16:34:37.413Z,12.54
2023-03-06T16:37:04.266Z,12.60
2023-03-06T16:39:30.962Z,12.49
2023-03-06T16:41:57.672Z,12.91
2023-03-06T16:44:24.748Z,12.38
2023-03-06T16:46:51.475Z,12.68
2023-03-06T16:49:19.938Z,12.40
2023-03-06T16:51:48.819Z,12.44
2023-03-06T16:54:15.546Z,11.51
2023-03-06T16:56:42.387Z,11.17
2023-03-06T16:59:09.145Z,11.51
2023-03-06T17:01:37.092Z,11.60
2023-03-06T17:04:04.073Z,11.51
2023-03-06T17:06:34.076Z,11.04
2023-03-06T17:09:02.746Z,11.22
2023-03-06T17:11:32.596Z,11.05
2023-03-06T17:13:59.668Z,11.26
2023-03-06T17:16:28.960Z,12.09
2023-03-06T17:18:58.194Z,12.22
2023-03-06T17:21:25.294Z,11.56
2023-03-06T17:23:52.254Z,11.96
2023-03-06T17:26:19.241Z,12.24
2023-03-06T17:28:46.529Z,12.46
2023-03-06T17:31:20.898Z,11.99
2023-03-06T17:33:47.773Z,13.13
2023-03-06T17:36:14.893Z,12.03
2023-03-06T17:38:42.757Z,12.50
2023-03-06T17:41:09.888Z,12.23
2023-03-06T17:43:37.414Z,11.75
2023-03-06T17:46:05.513Z,12.93
2023-03-06T17:48:32.809Z,13.53
2023-03-06T17:50:59.939Z,14.35
2023-03-06T17:53:27.178Z,14.55
2023-03-06T17:55:54.780Z,14.35
2023-03-06T17:58:22.804Z,14.70
2023-03-06T18:00:49.549Z,15.40
2023-03-06T18:03:17.620Z,14.76
2023-03-06T18:05:45.983Z,15.29
2023-03-06T18:08:12.866Z,15.38
2023-03-06T18:10:43.398Z,15.41
2023-03-06T18:13:10.693Z,14.74
2023-03-06T18:15:41.326Z,15.06
2023-03-06T18:18:08.326Z,14.75
2023-03-06T18:20:47.131Z,14.34
2023-03-06T18:23:14.133Z,14.23
2023-03-06T18:25:40.839Z,13.84
2023-03-06T18:28:10.355Z,14.09
2023-03-06T18:30:38.339Z,13.90
2023-03-06T18:33:08.039Z,14.47
2023-03-06T18:35:36.833Z,13.61
2023-03-06T18:38:05.403Z,14.13
2023-03-06T18:40:32.089Z,13.95
2023-03-06T18:42:58.911Z,14.22
2023-03-06T18:45:25.926Z,13.65
2023-03-06T18:47:54.800Z,14.06
2023-03-06T18:50:21.619Z,14.16
2023-03-06T18:52:49.685Z,14.80
2023-03-06T18:55:17.010Z,14.56
2023-03-06T18:57:44.275Z,14.22
2023-03-06T19:00:11.454Z,14.41
2023-03-06T19:02:38.173Z,13.99
2023-03-06T19:05:06.098Z,14.55
2023-03-06T19:07:32.869Z,14.51
2023-03-06T19:10:02.392Z,14.27
2023-03-06T19:12:29.258Z,13.73
2023-03-06T19:14:56.026Z,13.55
2023-03-06T19:17:25.586Z,14.38
2023-03-06T19:19:59.420Z,14.49
2023-03-06T19:22:26.729Z,14.56
2023-03-06T19:24:59.346Z,13.74
2023-03-06T19:27:36.133Z,13.48
2023-03-06T19:30:03.099Z,14.28
2023-03-06T19:32:29.845Z,13.87
2023-03-06T19:34:56.983Z,13.72
2023-03-06T19:37:24.574Z,13.75
2023-03-06T19:39:51.324Z,13.99
2023-03-06T19:42:18.393Z,13.83
2023-03-06T19:44:45.290Z,13.88
2023-03-06T19:47:12.079Z,14.22
2023-03-06T19:49:39.046Z,14.39
2023-03-06T19:52:05.785Z,14.59
2023-03-06T19:54:34.051Z,14.93
2023-03-06T19:57:00.777Z,15.23
2023-03-06T19:59:27.633Z,15.12
2023-03-06T20:01:54.486Z,15.37
2023-03-06T20:04:21.390Z,15.67
2023-03-06T20:06:55.821Z,16.12
2023-03-06T20:09:25.220Z,15.15
2023-03-06T20:11:52.076Z,15.85
2023-03-06T20:14:18.853Z,15.25
2023-03-06T20:16:45.567Z,15.50
2023-03-06T20:19:12.602Z,15.56
2023-03-06T20:21:42.046Z,15.90
2023-03-06T20:24:09.063Z,15.85
2023-03-06T20:26:51.148Z,15.71
2023-03-06T20:29:18.438Z,16.26
2023-03-06T20:31:45.267Z,15.76
2023-03-06T20:34:12.374Z,15.86
2023-03-06T20:36:39.914Z,16.12
2023-03-06T20:39:08.537Z,15.86
2023-03-06T20:41:35.410Z,16.28
2023-03-06T20:44:06.234Z,16.80
2023-03-06T20:46:33.257Z,16.39
2023-03-06T20:49:00.047Z,16.61
2023-03-06T20:51:31.400Z,17.00
2023-03-06T20:53:58.706Z,17.52
2023-03-06T20:56:27.000Z,16.73
2023-03-06T20:58:53.762Z,16.70
2023-03-06T21:01:24.139Z,16.95
2023-03-06T21:03:51.023Z,17.61
2023-03-06T21:06:17.784Z,17.48
2023-03-06T21:08:44.648Z,17.40
2023-03-06T21:11:12.626Z,16.75
2023-03-06T21:13:40.768Z,16.27
2023-03-06T21:16:09.198Z,16.27
2023-03-06T21:18:36.816Z,16.91
2023-03-06T21:21:14.609Z,17.45
2023-03-06T21:23:41.506Z,16.85
2023-03-06T21:26:14.085Z,16.43
2023-03-06T21:28:43.120Z,16.58
2023-03-06T21:31:12.575Z,16.52
2023-03-06T21:33:39.884Z,15.61
2023-03-06T21:36:07.317Z,16.13
2023-03-06T21:38:34.088Z,16.21
2023-03-06T21:41:18.068Z,16.59
2023-03-06T21:43:48.429Z,16.50
2023-03-06T21:46:16.041Z,16.66
2023-03-06T21:48:44.140Z,16.12
2023-03-06T21:51:14.493Z,16.38
2023-03-06T21:53:42.384Z,16.55
2023-03-06T21:56:10.425Z,16.56
2023-03-06T21:58:37.184Z,16.90
2023-03-06T22:01:09.788Z,16.86
2023-03-06T22:03:36.627Z,16.50
2023-03-06T22:06:17.790Z,16.72
2023-03-06T22:08:44.805Z,16.29
2023-03-06T22:11:15.811Z,16.47
2023-03-06T22:13:46.549Z,16.65
2023-03-06T22:16:16.681Z,16.10
2023-03-06T22:18:50.479Z,16.89
2023-03-06T22:21:18.209Z,17.22
2023-03-06T22:23:49.107Z,17.43
2023-03-06T22:26:15.850Z,16.99
2023-03-06T22:28:43.984Z,17.31
2023-03-06T22:31:24.674Z,16.79
2023-03-06T22:33:52.448Z,17.00
2023-03-06T22:36:19.254Z,16.78
2023-03-06T22:38:46.849Z,17.27
2023-03-06T22:41:16.125Z,17.20
2023-03-06T22:43:44.021Z,17.92
2023-03-06T22:46:16.445Z,17.10
2023-03-06T22:48:43.315Z,17.20
2023-03-06T22:51:16.123Z,17.47
2023-03-06T22:53:43.117Z,17.31
2023-03-06T22:56:11.254Z,20.18
2023-03-06T22:58:38.333Z,17.84
2023-03-06T23:01:14.103Z,17.92
2023-03-06T23:03:42.529Z,17.16
2023-03-06T23:06:16.671Z,18.12
2023-03-06T23:08:43.395Z,18.04
2023-03-06T23:11:14.056Z,18.48
2023-03-06T23:13:41.546Z,17.85
2023-03-06T23:16:09.226Z,17.44
2023-03-06T23:18:37.231Z,17.70
2023-03-06T23:21:11.671Z,17.20
2023-03-06T23:23:40.071Z,17.21
2023-03-06T23:26:07.435Z,17.39
2023-03-06T23:28:35.377Z,17.10
2023-03-06T23:31:10.124Z,17.66
2023-03-06T23:33:37.667Z,16.93
2023-03-06T23:36:05.235Z,17.22
2023-03-06T23:38:32.036Z,17.08
2023-03-06T23:41:10.654Z,16.29
2023-03-06T23:43:37.913Z,16.20
2023-03-06T23:46:05.726Z,16.38
2023-03-06T23:48:43.945Z,17.00
2023-03-06T23:51:18.409Z,15.76
2023-03-06T23:53:48.425Z,15.60
2023-03-06T23:56:15.831Z,16.13
2023-03-06T23:58:42.586Z,15.99
